• Join FlightAware (Why Join?)
  • Login
  • US Flag 
09:56AM EDT


 

Airport Tracker/Info


-or-


 

Live Flight TrackerFlight Track Log ✈ N137TK ✈ 07-May-2013 ✈ KYIP - KAVL

Flight Track Log - Related Links

Times and Time Zones

All times are in EDT time to prevent confusion due to time zone crossing. See the N137TK flight status page for this flight to view local times or setup timezone preferences in your user account.

Time Position Orientation Groundspeed Altitude Reporting Facility
EDT Latitude Longitude Course Direction KTS MPH feet Rate Location/Type
07:00PM 42.2475 -83.5172 325° Northwest 143 165 1,300  Level Cleveland Center
07:01PM 42.2761 -83.5439 325° Northwest 178 205 3,000 1,620 Climbing Cleveland Center
07:03PM 42.2517 -83.6803 256° West 186 214 6,200 1,560 Climbing Cleveland Center
07:04PM 42.2103 -83.6725 172° South 156 180 8,000 1,740 Climbing Cleveland Center
07:05PM 42.1606 -83.6561 166° South 151 174 9,700 1,800 Climbing Cleveland Center
07:06PM 42.1153 -83.6317 158° South 170 196 11,600 1,800 Climbing Cleveland Center
07:07PM 42.0658 -83.6097 162° South 176 203 13,300 1,620 Climbing Cleveland Center
07:08PM 42.0139 -83.6044 176° South 181 208 14,900 1,560 Climbing Cleveland Center
07:09PM 41.9594 -83.6214 193° South 192 221 16,500 1,500 Climbing Cleveland Center
07:10PM 41.9025 -83.6353 190° South 199 229 18,000 1,500 Climbing Cleveland Center
07:11PM 41.8500 -83.6497 192° South 199 229 19,500 1,320 Climbing Cleveland Center
07:12PM 41.7956 -83.6636 191° South 199 229 20,700 1,200 Climbing Cleveland Center
07:13PM 41.7408 -83.6778 191° South 199 229 21,900 1,200 Climbing Cleveland Center
07:14PM 41.6864 -83.6919 191° South 199 229 23,200 1,140 Climbing Cleveland Center
07:15PM 41.6317 -83.7058 191° South 199 229 24,200 960 Climbing Cleveland Center
07:16PM 41.5772 -83.7200 191° South 199 229 25,200 900 Climbing Cleveland Center
07:17PM 41.5206 -83.7339 190° South 199 229 26,000 360 Climbing Cleveland Center
07:18PM 41.4575 -83.7503 191° South 213 245 26,000  Level Cleveland Center
07:19PM 41.3881 -83.7689 191° South 237 273 26,000  Level Cleveland Center
07:20PM 41.3125 -83.7872 190° South 263 303 26,000  Level Cleveland Center
07:21PM 41.2350 -83.8056 190° South 284 327 26,000  Level Cleveland Center
07:22PM 41.1531 -83.8264 191° South 289 333 26,000  Level Cleveland Center
07:23PM 41.0167 -83.8603 191° South 292 336 26,000  Level Indianapolis Center
07:24PM 40.9369 -83.8811 191° South 289 333 26,000  Level Indianapolis Center
07:25PM 40.8564 -83.9014 191° South 291 335 26,000  Level Indianapolis Center
07:26PM 40.7622 -83.9239 190° South 291 335 26,000  Level Indianapolis Center
07:28PM 40.6842 -83.9056 170° South 282 325 26,000  Level Indianapolis Center
07:29PM 40.6047 -83.8931 173° South 287 330 26,000  Level Indianapolis Center
07:30PM 40.5242 -83.8956 181° South 286 329 26,000  Level Indianapolis Center
07:31PM 40.4433 -83.8983 181° South 288 331 26,000  Level Indianapolis Center
07:32PM 40.3619 -83.9006 181° South 290 334 26,000  Level Indianapolis Center
07:33PM 40.2858 -83.8683 162° South 287 330 26,000  Level Indianapolis Center
07:34PM 40.2108 -83.8378 163° South 282 325 26,000  Level Indianapolis Center
07:35PM 40.1200 -83.8108 167° South 285 328 26,000  Level Indianapolis Center
07:36PM 40.0414 -83.7889 168° South 287 330 26,000  Level Indianapolis Center
07:37PM 39.9631 -83.7664 168° South 288 331 26,000  Level Indianapolis Center
07:38PM 39.8844 -83.7433 167° South 287 330 26,000  Level Indianapolis Center
07:39PM 39.8056 -83.7208 168° South 291 335 26,000  Level Indianapolis Center
07:40PM 39.7258 -83.6981 168° South 293 337 26,000  Level Indianapolis Center
07:41PM 39.6469 -83.6753 167° South 290 334 26,000  Level Indianapolis Center
07:42PM 39.5531 -83.6481 167° South 295 339 26,000  Level Indianapolis Center
07:43PM 39.4706 -83.6250 168° South 299 344 26,000  Level Indianapolis Center
07:44PM 39.3894 -83.6022 168° South 297 342 26,000  Level Indianapolis Center
07:45PM 39.3072 -83.5792 168° South 299 344 26,000  Level Indianapolis Center
07:46PM 39.2269 -83.5553 167° South 297 342 26,000  Level Indianapolis Center
07:47PM 39.1458 -83.5342 169° South 293 337 26,000  Level Indianapolis Center
07:48PM 39.0647 -83.5111 168° South 294 338 26,000  Level Indianapolis Center
07:49PM 38.9833 -83.4883 168° South 296 341 26,000  Level Indianapolis Center
07:50PM 38.8894 -83.4619 168° South 294 338 26,000  Level Indianapolis Center
07:51PM 38.8078 -83.4397 168° South 297 342 26,000  Level Indianapolis Center
07:52PM 38.7253 -83.4150 167° South 300 345 26,000  Level Indianapolis Center
07:53PM 38.6367 -83.3917 168° South 302 348 26,000  Level Indianapolis Center
07:54PM 38.5547 -83.3681 167° South 301 346 26,000  Level Indianapolis Center
07:55PM 38.4722 -83.3456 168° South 304 350 26,000  Level Indianapolis Center
07:56PM 38.3908 -83.3231 168° South 300 345 26,000  Level Indianapolis Center
07:57PM 38.3083 -83.3014 168° South 300 345 26,000  Level Indianapolis Center
07:58PM 38.2272 -83.2769 167° South 300 345 26,000  Level Indianapolis Center
07:59PM 38.1464 -83.2558 168° South 297 342 26,000  Level Indianapolis Center
08:00PM 38.0533 -83.2303 168° South 294 338 26,000  Level Indianapolis Center
08:01PM 37.9719 -83.2092 168° South 296 341 26,000  Level Indianapolis Center
08:02PM 37.8906 -83.1872 168° South 298 343 26,000  Level Indianapolis Center
08:04PM 37.8072 -83.1631 167° South 305 351 26,000  Level Indianapolis Center
08:05PM 37.7231 -83.1408 168° South 308 354 26,000  Level Indianapolis Center
08:06PM 37.6386 -83.1178 168° South 309 356 26,000 -420 Level Indianapolis Center
08:07PM 37.5531 -83.0964 169° South 311 358 25,200 -960 Descending Indianapolis Center
08:08PM 37.4464 -83.0675 168° South 332 382 24,100 -1,080 Descending Indianapolis Center
08:09PM 37.3561 -83.0431 168° South 333 383 23,100 -540 Descending Indianapolis Center
08:10PM 37.2700 -83.0200 168° South 318 366 23,000 -60 Descending Indianapolis Center
08:11PM 37.1878 -82.9981 168° South 305 351 23,000  Level Indianapolis Center
08:12PM 37.1042 -82.9756 168° South 306 352 23,000  Level Indianapolis Center
08:13PM 37.0203 -82.9533 168° South 308 354 23,000  Level Indianapolis Center
08:14PM 36.9383 -82.9328 169° South 307 353 23,000  Level Indianapolis Center
08:14PM 36.8644 -82.9153 169° South 323 372 23,000  Level Atlanta Center
08:15PM 36.7786 -82.8933 168° South 323 372 23,000 -600 Level Atlanta Center
08:16PM 36.6931 -82.8686 167° South 318 366 21,900 -1,080 Descending Atlanta Center
08:17PM 36.6706 -82.8608 165° South 318 366 21,500 -1,200 Descending Indianapolis Center
08:17PM 36.6053 -82.8467 170° South 318 366 20,700 -1,320 Descending Atlanta Center
08:18PM 36.5153 -82.8219 168° South 323 372 19,500 -1,260 Descending Atlanta Center
08:19PM 36.4275 -82.8003 169° South 328 377 18,200 -1,320 Descending Atlanta Center
08:20PM 36.3397 -82.7758 167° South 328 377 16,900 -1,320 Descending Atlanta Center
08:21PM 36.2497 -82.7542 169° South 335 386 15,600 -1,320 Descending Atlanta Center
08:22PM 36.1619 -82.7297 167° South 335 386 14,300 -1,380 Descending Atlanta Center
08:23PM 36.0761 -82.7081 168° South 329 379 12,900 -1,380 Descending Atlanta Center
08:24PM 35.9903 -82.6864 168° South 324 373 11,600 -1,320 Descending Atlanta Center
08:25PM 35.9086 -82.6644 168° South 312 359 10,300 -1,260 Descending Atlanta Center
08:26PM 35.8392 -82.6119 148° Southeast 299 344 9,100 -1,200 Descending Atlanta Center
08:27PM 35.7719 -82.5594 148° Southeast 293 337 8,000 -900 Descending Atlanta Center
08:28PM 35.7069 -82.5325 161° South 280 322 7,300 -540 Descending Atlanta Center
08:29PM 35.6356 -82.5056 163° South 280 322 7,000 -480 Descending Atlanta Center
08:30PM 35.5708 -82.4839 165° South 256 295 6,400 -720 Descending Atlanta Center
08:31PM 35.4953 -82.4622 167° South 250 288 5,600 -840 Descending Atlanta Center
08:34PM 35.4443 -82.5309 168° South  Level Estimated
08:41PM 35.4333 -82.5333 168° South  Level FlightAware Approximate
08:42PM 35.4362 -82.5418 168° South  Level Estimated
08:43PM 35.4362 -82.5418 168° South  Level Estimated